createdAt,value
2022-10-17T00:00:43.053Z,19.60
2022-10-17T00:04:44.045Z,19.60
2022-10-17T00:08:45.771Z,19.60
2022-10-17T00:12:47.244Z,19.50
2022-10-17T00:16:48.197Z,19.40
2022-10-17T00:20:49.455Z,19.90
2022-10-17T00:24:50.516Z,19.70
2022-10-17T00:28:52.641Z,20.30
2022-10-17T00:32:53.702Z,20.70
2022-10-17T00:36:54.736Z,20.60
2022-10-17T00:40:56.595Z,20.70
2022-10-17T00:45:03.997Z,21.00
2022-10-17T00:49:10.466Z,21.40
2022-10-17T00:53:11.722Z,21.40
2022-10-17T00:57:13.954Z,21.40
2022-10-17T01:01:15.216Z,20.40
2022-10-17T01:05:18.183Z,20.60
2022-10-17T01:09:19.635Z,20.90
2022-10-17T01:13:27.337Z,19.90
2022-10-17T01:17:47.300Z,20.50
2022-10-17T01:21:58.273Z,20.70
2022-10-17T01:26:29.041Z,20.60
2022-10-17T01:30:49.111Z,20.20
2022-10-17T01:34:56.826Z,20.00
2022-10-17T01:39:20.096Z,19.90
2022-10-17T01:43:27.629Z,20.00
2022-10-17T01:47:31.926Z,20.00
2022-10-17T01:51:39.406Z,20.60
2022-10-17T01:55:44.061Z,20.90
2022-10-17T01:59:48.221Z,21.30
2022-10-17T02:03:51.151Z,20.20
2022-10-17T02:07:52.113Z,19.70
2022-10-17T02:12:06.258Z,19.10
2022-10-17T02:16:37.019Z,18.90
2022-10-17T02:21:02.921Z,18.30
2022-10-17T02:25:22.986Z,18.90
2022-10-17T02:29:27.754Z,18.70
2022-10-17T02:33:47.737Z,18.40
2022-10-17T02:37:50.988Z,19.40
2022-10-17T02:41:54.425Z,19.50
2022-10-17T02:45:56.829Z,19.80
2022-10-17T02:49:58.062Z,19.70
2022-10-17T02:54:02.934Z,19.70
2022-10-17T02:58:10.327Z,19.40
2022-10-17T03:02:11.774Z,20.40
2022-10-17T03:06:12.811Z,20.70
2022-10-17T03:10:13.923Z,19.10
2022-10-17T03:14:14.879Z,20.40
2022-10-17T03:18:16.050Z,19.90
2022-10-17T03:22:16.996Z,19.60
2022-10-17T03:26:17.997Z,19.40
2022-10-17T03:30:19.689Z,19.50
2022-10-17T03:34:21.196Z,20.00
2022-10-17T03:38:22.167Z,19.50
2022-10-17T03:42:23.174Z,19.20
2022-10-17T03:46:24.240Z,19.70
2022-10-17T03:50:25.436Z,19.40
2022-10-17T03:54:26.289Z,19.80
2022-10-17T03:58:28.138Z,19.70
2022-10-17T04:02:28.991Z,19.50
2022-10-17T04:06:29.842Z,19.30
2022-10-17T04:10:30.717Z,19.30
2022-10-17T04:14:31.736Z,19.20
2022-10-17T04:18:33.291Z,20.20
2022-10-17T04:22:34.232Z,20.30
2022-10-17T04:26:35.179Z,18.70
2022-10-17T04:30:36.451Z,19.60
2022-10-17T04:34:37.378Z,20.50
2022-10-17T04:38:38.885Z,20.50
2022-10-17T04:42:40.017Z,20.70
2022-10-17T04:46:40.970Z,19.90
2022-10-17T04:50:43.943Z,19.90
2022-10-17T04:55:05.459Z,19.50
2022-10-17T04:59:06.414Z,19.30
2022-10-17T05:03:07.464Z,19.00
2022-10-17T05:07:08.555Z,19.50
2022-10-17T05:11:24.096Z,19.80
2022-10-17T05:15:25.344Z,19.10
2022-10-17T05:19:26.415Z,19.00
2022-10-17T05:23:29.939Z,19.60
2022-10-17T05:27:31.654Z,19.10
2022-10-17T05:31:32.655Z,19.20
2022-10-17T05:35:33.786Z,19.60
2022-10-17T05:39:35.159Z,19.80
2022-10-17T05:43:36.243Z,20.00
2022-10-17T05:47:37.292Z,18.30
2022-10-17T05:55:39.259Z,19.10
2022-10-17T05:59:40.194Z,19.70
2022-10-17T06:03:41.200Z,19.30
2022-10-17T06:07:42.615Z,18.40
2022-10-17T06:11:43.950Z,18.10
2022-10-17T06:15:45.657Z,19.10
2022-10-17T06:19:47.100Z,20.30
2022-10-17T06:23:48.101Z,20.00
2022-10-17T06:27:49.174Z,20.70
2022-10-17T06:31:51.179Z,20.40
2022-10-17T06:35:53.475Z,19.50
2022-10-17T06:39:54.605Z,20.60
2022-10-17T06:43:56.432Z,20.60
2022-10-17T06:47:57.503Z,20.90
2022-10-17T06:51:58.584Z,21.10
2022-10-17T06:56:03.861Z,20.00
2022-10-17T07:00:05.926Z,20.40
2022-10-17T07:04:07.039Z,21.80
2022-10-17T07:08:09.287Z,21.40
2022-10-17T07:12:12.170Z,21.70
2022-10-17T07:16:15.230Z,22.00
2022-10-17T07:20:16.694Z,21.70
2022-10-17T07:24:17.669Z,20.90
2022-10-17T07:28:18.874Z,22.10
2022-10-17T07:32:19.875Z,21.50
2022-10-17T07:36:20.985Z,21.40
2022-10-17T07:40:22.125Z,21.20
2022-10-17T07:44:23.115Z,22.00
2022-10-17T07:48:24.843Z,21.60
2022-10-17T07:52:25.884Z,21.50
2022-10-17T07:56:28.962Z,21.30
2022-10-17T08:00:29.915Z,21.80
2022-10-17T08:04:31.006Z,21.20
2022-10-17T08:08:32.535Z,21.10
2022-10-17T08:12:33.995Z,21.20
2022-10-17T08:16:35.506Z,20.90
2022-10-17T08:20:36.761Z,21.00
2022-10-17T08:24:37.871Z,21.30
2022-10-17T08:28:40.125Z,20.90
2022-10-17T08:32:43.049Z,21.50
2022-10-17T08:36:44.218Z,21.20
2022-10-17T08:40:48.400Z,20.50
2022-10-17T08:45:14.940Z,20.30
2022-10-17T08:49:25.538Z,20.80
2022-10-17T08:53:46.740Z,21.30
2022-10-17T08:57:48.435Z,20.50
2022-10-17T09:01:59.502Z,20.90
2022-10-17T09:06:26.113Z,19.70
2022-10-17T09:10:43.138Z,21.40
2022-10-17T09:15:07.815Z,21.10
2022-10-17T09:19:25.237Z,21.60
2022-10-17T09:23:32.515Z,20.60
2022-10-17T09:27:39.910Z,21.50
2022-10-17T09:31:44.810Z,21.10
2022-10-17T09:35:47.285Z,22.30
2022-10-17T09:39:48.464Z,22.50
2022-10-17T09:43:58.641Z,22.20
2022-10-17T09:48:21.761Z,22.00
2022-10-17T09:52:35.514Z,21.60
2022-10-17T09:57:05.751Z,21.20
2022-10-17T10:01:24.218Z,22.00
2022-10-17T10:05:26.028Z,22.40
2022-10-17T10:09:30.255Z,21.90
2022-10-17T10:13:33.824Z,21.90
2022-10-17T10:17:43.730Z,22.70
2022-10-17T10:21:51.461Z,23.10
2022-10-17T10:25:58.553Z,23.40
2022-10-17T10:30:00.189Z,22.50
2022-10-17T10:34:06.643Z,22.20
2022-10-17T10:38:10.936Z,23.10
2022-10-17T10:42:18.815Z,23.80
2022-10-17T10:46:26.894Z,23.80
2022-10-17T10:50:46.055Z,24.10
2022-10-17T10:54:57.050Z,24.30
2022-10-17T10:59:01.924Z,24.40
2022-10-17T11:03:18.735Z,24.60
2022-10-17T11:07:44.697Z,25.50
2022-10-17T11:11:49.523Z,23.90
2022-10-17T11:15:59.812Z,24.00
2022-10-17T11:20:20.008Z,24.60
2022-10-17T11:24:40.143Z,24.20
2022-10-17T11:28:41.579Z,24.40
2022-10-17T11:32:46.444Z,24.10
2022-10-17T11:36:51.391Z,24.20
2022-10-17T11:40:56.256Z,25.20
2022-10-17T11:45:04.538Z,24.90
2022-10-17T11:49:20.651Z,25.60
2022-10-17T11:53:31.164Z,25.90
2022-10-17T11:57:36.765Z,25.70
2022-10-17T12:01:44.989Z,26.20
2022-10-17T12:05:49.975Z,26.00
2022-10-17T12:10:01.430Z,25.90
2022-10-17T12:14:05.783Z,26.50
2022-10-17T12:18:10.532Z,26.00
2022-10-17T12:22:21.217Z,25.20
2022-10-17T12:26:28.209Z,25.30
2022-10-17T12:30:29.559Z,25.50
2022-10-17T12:34:31.125Z,24.60
2022-10-17T12:38:32.653Z,25.50
2022-10-17T12:42:43.785Z,25.30
2022-10-17T12:46:50.841Z,25.50
2022-10-17T12:55:15.633Z,25.90
2022-10-17T12:59:23.399Z,26.50
2022-10-17T13:03:33.122Z,25.70
2022-10-17T13:07:36.897Z,27.00
2022-10-17T13:11:39.404Z,27.10
2022-10-17T13:15:46.824Z,26.40
2022-10-17T13:19:48.413Z,26.80
2022-10-17T13:23:51.854Z,25.50
2022-10-17T13:28:06.654Z,26.50
2022-10-17T13:32:11.360Z,27.20
2022-10-17T13:36:16.847Z,27.10
2022-10-17T13:40:44.059Z,26.80
2022-10-17T13:44:28.306Z,25.30
2022-10-17T13:48:32.426Z,26.10
2022-10-17T13:52:34.402Z,26.20
2022-10-17T13:56:36.528Z,26.00
2022-10-17T14:00:37.973Z,26.00
2022-10-17T14:05:04.124Z,25.90
2022-10-17T14:09:04.940Z,26.40
2022-10-17T14:13:07.944Z,26.00
2022-10-17T14:17:22.053Z,26.20
2022-10-17T14:21:43.817Z,25.20
2022-10-17T14:25:37.300Z,25.50
2022-10-17T14:29:53.231Z,25.30
2022-10-17T14:33:55.694Z,25.60
2022-10-17T14:38:01.568Z,26.00
2022-10-17T14:42:04.749Z,25.70
2022-10-17T14:46:06.757Z,26.20
2022-10-17T14:50:12.355Z,26.70
2022-10-17T14:54:27.887Z,26.90
2022-10-17T14:58:32.394Z,26.80
2022-10-17T15:02:35.265Z,26.50
2022-10-17T15:06:36.711Z,26.20
2022-10-17T15:10:42.926Z,26.80
2022-10-17T15:14:49.119Z,25.80
2022-10-17T15:18:51.619Z,26.00
2022-10-17T15:22:54.398Z,26.60
2022-10-17T15:26:56.259Z,26.80
2022-10-17T15:30:59.957Z,26.90
2022-10-17T15:35:03.047Z,26.70
2022-10-17T15:39:06.749Z,26.80
2022-10-17T15:43:10.047Z,26.60
2022-10-17T15:47:21.497Z,26.40
2022-10-17T15:51:24.233Z,25.80
2022-10-17T15:55:26.444Z,25.60
2022-10-17T15:59:31.434Z,25.70
2022-10-17T16:03:33.707Z,25.00
2022-10-17T16:07:37.886Z,24.70
2022-10-17T16:11:42.967Z,24.10
2022-10-17T16:15:46.626Z,24.40
2022-10-17T16:19:50.423Z,24.40
2022-10-17T16:23:53.598Z,24.40
2022-10-17T16:27:58.162Z,24.20
2022-10-17T16:32:00.422Z,23.70
2022-10-17T16:36:02.522Z,23.70
2022-10-17T16:40:06.253Z,23.60
2022-10-17T16:44:12.501Z,23.60
2022-10-17T16:48:13.713Z,23.10
2022-10-17T16:52:14.790Z,23.40
2022-10-17T16:56:18.263Z,22.90
2022-10-17T17:00:19.816Z,23.10
2022-10-17T17:04:21.031Z,23.20
2022-10-17T17:08:22.138Z,23.00
2022-10-17T17:12:23.445Z,22.90
2022-10-17T17:16:26.004Z,22.80
2022-10-17T17:20:26.985Z,22.70
2022-10-17T17:24:28.737Z,22.60
2022-10-17T17:28:30.820Z,22.10
2022-10-17T17:32:32.172Z,22.20
2022-10-17T17:36:36.396Z,21.60
2022-10-17T17:40:50.663Z,22.00
2022-10-17T17:44:52.249Z,21.90
2022-10-17T17:48:55.357Z,22.00
2022-10-17T17:52:56.877Z,21.90
2022-10-17T17:56:58.031Z,21.30
2022-10-17T18:00:59.658Z,21.20
2022-10-17T18:05:00.887Z,21.20
2022-10-17T18:09:02.149Z,21.20
2022-10-17T18:13:03.077Z,21.00
2022-10-17T18:17:04.350Z,20.50
2022-10-17T18:21:06.370Z,20.40
2022-10-17T18:25:08.557Z,20.80
2022-10-17T18:29:12.020Z,20.90
2022-10-17T18:33:13.570Z,20.70
2022-10-17T18:37:15.518Z,20.90
2022-10-17T18:41:19.169Z,21.30
2022-10-17T18:45:22.880Z,21.10
2022-10-17T18:49:25.350Z,20.90
2022-10-17T18:53:27.400Z,20.90
2022-10-17T18:57:29.368Z,20.70
2022-10-17T19:01:31.066Z,20.60
2022-10-17T19:05:34.196Z,20.60
2022-10-17T19:09:36.608Z,20.70
2022-10-17T19:13:38.692Z,20.40
2022-10-17T19:17:40.508Z,19.20
2022-10-17T19:21:42.861Z,20.20
2022-10-17T19:25:44.970Z,19.70
2022-10-17T19:29:47.602Z,19.60
2022-10-17T19:33:52.014Z,20.20
2022-10-17T19:37:55.567Z,20.30
2022-10-17T19:41:57.314Z,19.70
2022-10-17T19:46:01.370Z,20.20
2022-10-17T19:54:05.242Z,20.50
2022-10-17T19:58:08.944Z,20.70
2022-10-17T20:02:13.007Z,20.30
2022-10-17T20:06:15.177Z,20.10
2022-10-17T20:10:17.929Z,19.80
2022-10-17T20:14:19.182Z,20.20
2022-10-17T20:18:20.218Z,20.30
2022-10-17T20:22:21.251Z,20.10
2022-10-17T20:26:33.615Z,20.30
2022-10-17T20:30:27.543Z,20.40
2022-10-17T20:34:30.616Z,20.40
2022-10-17T20:38:31.687Z,20.40
2022-10-17T20:42:33.071Z,19.90
2022-10-17T20:46:37.805Z,20.00
2022-10-17T20:50:38.670Z,20.20
2022-10-17T20:54:40.922Z,20.50
2022-10-17T20:58:41.991Z,20.40
2022-10-17T21:02:43.253Z,20.60
2022-10-17T21:06:46.168Z,20.50
2022-10-17T21:10:47.631Z,20.50
2022-10-17T21:14:49.612Z,20.50
2022-10-17T21:18:50.756Z,20.80
2022-10-17T21:22:51.914Z,21.00
2022-10-17T21:26:54.907Z,20.80
2022-10-17T21:31:09.483Z,20.70
2022-10-17T21:35:10.441Z,20.60
2022-10-17T21:39:13.354Z,20.50
2022-10-17T21:43:14.323Z,20.70
2022-10-17T21:47:15.345Z,20.80
2022-10-17T21:51:18.319Z,20.40
2022-10-17T21:55:19.276Z,20.40
2022-10-17T21:59:20.294Z,20.40
2022-10-17T22:03:21.211Z,20.60
2022-10-17T22:07:22.176Z,20.70
2022-10-17T22:11:26.759Z,20.80
2022-10-17T22:15:29.328Z,20.90
2022-10-17T22:19:30.452Z,21.10
2022-10-17T22:23:31.758Z,20.70
2022-10-17T22:27:33.102Z,20.80
2022-10-17T22:31:35.885Z,20.80
2022-10-17T22:35:36.841Z,20.20
2022-10-17T22:39:38.204Z,19.10
2022-10-17T22:43:39.325Z,20.10
2022-10-17T22:47:40.532Z,20.80
2022-10-17T22:51:41.589Z,19.80
2022-10-17T22:55:42.709Z,20.50
2022-10-17T22:59:43.628Z,21.00
2022-10-17T23:03:45.221Z,21.20
2022-10-17T23:07:46.274Z,21.20
2022-10-17T23:11:47.135Z,20.40
2022-10-17T23:15:53.988Z,19.90
2022-10-17T23:19:57.637Z,20.50
2022-10-17T23:23:57.663Z,20.90
2022-10-17T23:27:58.583Z,21.30
2022-10-17T23:32:00.393Z,21.60
2022-10-17T23:36:05.399Z,21.60
2022-10-17T23:40:07.511Z,21.40
2022-10-17T23:44:09.976Z,21.40
2022-10-17T23:48:10.827Z,21.50
2022-10-17T23:52:11.857Z,21.60
2022-10-17T23:56:12.902Z,20.80
